This is the latest recevied weather packets stored in our database for station/object KA1STV. If no packets are shown the sender has not sent any weather packets the latest 1 day(s).
| Time | Temp. | Humidity | Pressure | Rain* | Wind** | Luminosity | Snow |
|---|---|---|---|---|---|---|---|
| 1778002642 | 26.67° C | 47% | 1006 hPa | 0 mm | 0.89 m/s, 351° | 773 W/m² | - |
| 1778002339 | 26.11° C | 47% | 1005.7 hPa | 0 mm | 1.34 m/s, 232° | 773 W/m² | - |
| 1778002036 | 26.67° C | 47% | 1006 hPa | 0 mm | 2.68 m/s, 102° | 675 W/m² | - |
| 1778001732 | 26.11° C | 49% | 1006.1 hPa | 0 mm | 1.79 m/s, 215° | 212 W/m² | - |
| 1778001432 | 26.11° C | 50% | 1005.9 hPa | 0 mm | 0.45 m/s, 24° | 565 W/m² | - |
| 1778001130 | 26.11° C | 48% | 1006 hPa | 0 mm | 1.34 m/s, 196° | 177 W/m² | - |
| 1778000827 | 27.22° C | 47% | 1006.2 hPa | 0 mm | 4.02 m/s, 98° | 179 W/m² | - |
| 1778000524 | 26.11° C | 47% | 1006.4 hPa | 0 mm | 1.79 m/s, 110° | 791 W/m² | - |
| 1778000228 | 26.67° C | 46% | 1006.3 hPa | 0 mm | 0.45 m/s, 352° | 799 W/m² | - |
| 1777999920 | 26.11° C | 47% | 1006.5 hPa | 0 mm | 2.24 m/s, 258° | 773 W/m² | - |
| 1777999615 | 26.67° C | 47% | 1006.4 hPa | 0 mm | 0.89 m/s, 171° | 720 W/m² | - |
| 1777999313 | 26.67° C | 48% | 1006.6 hPa | 0 mm | 0.89 m/s, 137° | 744 W/m² | - |
| 1777999011 | 26.11° C | 49% | 1006.8 hPa | 0 mm | 1.34 m/s, 65° | 759 W/m² | - |
| 1777998709 | 25.56° C | 50% | 1007 hPa | 0 mm | 0.89 m/s, 282° | 711 W/m² | - |
| 1777998406 | 25.56° C | 49% | 1006.8 hPa | 0 mm | 1.34 m/s, 204° | 402 W/m² | - |
| 1777998104 | 25° C | 51% | 1007.2 hPa | 0 mm | 1.79 m/s, 105° | 720 W/m² | - |
| 1777997800 | 25.56° C | 52% | 1007.4 hPa | 0 mm | 1.34 m/s, 177° | 673 W/m² | - |
| 1777997498 | 25° C | 52% | 1007.3 hPa | 0 mm | 2.24 m/s, 95° | 635 W/m² | - |
| 1777997196 | 24.44° C | 52% | 1007.6 hPa | 0 mm | 0.45 m/s, 115° | 628 W/m² | - |
| 1777996893 | 24.44° C | 53% | 1007.4 hPa | 0 mm | 1.79 m/s, 98° | 652 W/m² | - |
| 1777996588 | 24.44° C | 53% | 1007.6 hPa | 0 mm | 0 m/s | 633 W/m² | - |
| 1777996285 | 23.89° C | 55% | 1007.5 hPa | 0 mm | 0 m/s | 659 W/m² | - |
| 1777995981 | 22.78° C | 57% | 1007.8 hPa | 0 mm | 0.45 m/s, 2° | 667 W/m² | - |
| 1777995677 | 22.78° C | 57% | 1008 hPa | 0 mm | 0.89 m/s, 152° | 690 W/m² | - |
| 1777995375 | 22.78° C | 59% | 1007.9 hPa | 0 mm | 0 m/s | 718 W/m² | - |
* Rain latest hour (hover to see other rain measurements)
** Current wind speed in m/s (hover to see current wind gust speed)